createdAt,value
2024-05-09T00:03:19.062Z,11.63
2024-05-09T00:07:45.277Z,11.63
2024-05-09T00:12:11.387Z,11.61
2024-05-09T00:16:39.860Z,11.60
2024-05-09T00:21:08.356Z,11.56
2024-05-09T00:25:34.079Z,11.44
2024-05-09T00:30:00.049Z,11.36
2024-05-09T00:34:28.440Z,11.27
2024-05-09T00:38:54.259Z,11.25
2024-05-09T00:43:19.935Z,11.22
2024-05-09T00:47:47.240Z,11.22
2024-05-09T00:52:15.865Z,11.20
2024-05-09T00:56:41.966Z,11.21
2024-05-09T01:01:11.200Z,11.21
2024-05-09T01:05:37.248Z,11.20
2024-05-09T01:10:11.498Z,11.18
2024-05-09T01:14:40.176Z,11.15
2024-05-09T01:19:07.520Z,11.15
2024-05-09T01:23:36.911Z,11.13
2024-05-09T01:28:02.727Z,11.11
2024-05-09T01:32:28.845Z,11.05
2024-05-09T01:36:54.486Z,11.06
2024-05-09T01:41:23.214Z,11.04
2024-05-09T01:45:48.840Z,11.01
2024-05-09T01:54:42.213Z,10.93
2024-05-09T01:59:10.900Z,10.91
2024-05-09T02:03:36.634Z,10.92
2024-05-09T02:08:02.642Z,10.88
2024-05-09T02:12:28.721Z,10.87
2024-05-09T02:16:57.465Z,10.86
2024-05-09T02:21:23.126Z,10.87
2024-05-09T02:25:49.696Z,10.88
2024-05-09T02:30:22.748Z,10.86
2024-05-09T02:34:59.717Z,10.85
2024-05-09T02:39:25.485Z,10.82
2024-05-09T02:43:51.704Z,10.76
2024-05-09T02:48:17.431Z,10.73
2024-05-09T02:52:46.147Z,10.71
2024-05-09T02:57:11.812Z,10.71
2024-05-09T03:01:38.070Z,10.71
2024-05-09T03:06:05.046Z,10.67
2024-05-09T03:10:36.590Z,10.68
2024-05-09T03:15:04.816Z,10.65
2024-05-09T03:19:30.983Z,10.65
2024-05-09T03:23:56.799Z,10.64
2024-05-09T03:28:25.538Z,10.60
2024-05-09T03:32:51.327Z,10.60
2024-05-09T03:37:17.841Z,10.59
2024-05-09T03:41:43.465Z,10.57
2024-05-09T03:46:12.020Z,10.56
2024-05-09T03:50:38.067Z,10.56
2024-05-09T03:55:04.177Z,10.59
2024-05-09T03:59:29.971Z,10.59
2024-05-09T04:03:58.711Z,10.62
2024-05-09T04:08:24.405Z,10.61
2024-05-09T04:12:50.456Z,10.63
2024-05-09T04:17:16.480Z,10.65
2024-05-09T04:21:45.192Z,10.66
2024-05-09T04:26:10.902Z,10.69
2024-05-09T04:30:40.083Z,10.73
2024-05-09T04:35:08.143Z,10.77
2024-05-09T04:39:36.714Z,10.84
2024-05-09T04:44:02.362Z,10.89
2024-05-09T04:48:28.625Z,10.95
2024-05-09T04:52:54.405Z,11.03
2024-05-09T04:57:22.967Z,11.09
2024-05-09T05:01:48.599Z,11.15
2024-05-09T05:06:14.222Z,11.27
2024-05-09T05:10:39.838Z,11.41
2024-05-09T05:15:08.910Z,11.50
2024-05-09T05:19:35.155Z,11.62
2024-05-09T05:24:01.127Z,11.79
2024-05-09T05:28:26.782Z,11.91
2024-05-09T05:32:56.333Z,12.16
2024-05-09T05:37:21.985Z,12.44
2024-05-09T05:41:47.839Z,12.65
2024-05-09T05:46:13.442Z,12.90
2024-05-09T05:50:42.019Z,13.12
2024-05-09T05:55:08.292Z,13.36
2024-05-09T05:59:34.349Z,13.58
2024-05-09T06:04:00.146Z,13.76
2024-05-09T06:08:30.428Z,13.84
2024-05-09T06:12:57.123Z,14.04
2024-05-09T06:17:22.844Z,14.21
2024-05-09T06:21:49.020Z,14.30
2024-05-09T06:26:17.637Z,14.43
2024-05-09T06:30:43.559Z,14.54
2024-05-09T06:35:09.946Z,14.65
2024-05-09T06:39:35.574Z,14.75
2024-05-09T06:44:04.465Z,14.96
2024-05-09T06:48:30.257Z,15.19
2024-05-09T06:52:56.468Z,15.34
2024-05-09T06:57:23.189Z,15.48
2024-05-09T07:01:52.021Z,15.62
2024-05-09T07:06:17.831Z,15.76
2024-05-09T07:10:44.540Z,15.97
2024-05-09T07:15:10.670Z,16.16
2024-05-09T07:19:39.381Z,16.29
2024-05-09T07:24:05.593Z,16.48
2024-05-09T07:28:31.495Z,16.61
2024-05-09T07:32:57.277Z,16.66
2024-05-09T07:37:25.948Z,16.80
2024-05-09T07:41:51.550Z,16.94
2024-05-09T07:47:14.231Z,17.15
2024-05-09T07:55:35.206Z,17.39
2024-05-09T08:00:00.829Z,17.59
2024-05-09T08:04:26.978Z,17.67
2024-05-09T08:08:53.225Z,17.80
2024-05-09T08:13:22.138Z,17.94
2024-05-09T08:17:47.857Z,18.08
2024-05-09T08:22:13.927Z,18.23
2024-05-09T08:26:40.053Z,18.40
2024-05-09T08:31:08.803Z,18.50
2024-05-09T08:35:34.886Z,18.50
2024-05-09T08:40:01.508Z,18.54
2024-05-09T08:44:27.183Z,18.61
2024-05-09T08:48:59.080Z,18.59
2024-05-09T08:53:24.806Z,18.62
2024-05-09T08:57:51.500Z,18.76
2024-05-09T09:02:17.615Z,18.85
2024-05-09T09:06:47.598Z,18.86
2024-05-09T09:11:13.819Z,18.87
2024-05-09T09:15:50.650Z,18.89
2024-05-09T09:20:23.225Z,18.99
2024-05-09T09:24:58.210Z,19.05
2024-05-09T09:29:24.470Z,19.08
2024-05-09T09:33:50.778Z,19.11
2024-05-09T09:38:21.486Z,19.17
2024-05-09T09:42:53.051Z,19.18
2024-05-09T09:47:19.912Z,19.29
2024-05-09T09:51:46.586Z,19.37
2024-05-09T09:56:14.157Z,19.40
2024-05-09T10:00:43.070Z,19.44
2024-05-09T10:05:10.169Z,19.49
2024-05-09T10:09:36.318Z,19.47
2024-05-09T10:14:02.474Z,19.44
2024-05-09T10:18:40.704Z,19.51
2024-05-09T10:23:07.463Z,19.60
2024-05-09T10:27:34.294Z,19.70
2024-05-09T10:32:03.718Z,19.80
2024-05-09T10:36:32.873Z,19.84
2024-05-09T10:41:00.087Z,19.88
2024-05-09T10:45:25.999Z,19.90
2024-05-09T10:49:52.834Z,19.96
2024-05-09T10:54:21.512Z,20.05
2024-05-09T10:58:48.138Z,20.15
2024-05-09T11:03:16.955Z,20.25
2024-05-09T11:07:42.670Z,20.28
2024-05-09T11:12:12.295Z,20.29
2024-05-09T11:16:38.008Z,20.36
2024-05-09T11:21:04.097Z,20.36
2024-05-09T11:25:33.087Z,20.36
2024-05-09T11:30:02.388Z,20.36
2024-05-09T11:34:29.542Z,20.46
2024-05-09T11:38:55.691Z,20.47
2024-05-09T11:43:21.410Z,20.48
2024-05-09T11:47:50.281Z,20.51
2024-05-09T11:52:16.043Z,20.53
2024-05-09T11:56:42.068Z,20.50
2024-05-09T12:01:08.034Z,20.53
2024-05-09T12:05:37.158Z,20.61
2024-05-09T12:10:04.677Z,20.64
2024-05-09T12:14:32.067Z,20.62
2024-05-09T12:18:58.893Z,20.60
2024-05-09T12:23:27.462Z,20.56
2024-05-09T12:27:53.219Z,20.64
2024-05-09T12:32:19.272Z,20.72
2024-05-09T12:36:45.348Z,20.79
2024-05-09T12:41:14.009Z,20.83
2024-05-09T12:45:40.427Z,20.88
2024-05-09T12:50:13.415Z,20.90
2024-05-09T12:54:44.804Z,20.92
2024-05-09T12:59:13.680Z,20.91
2024-05-09T13:03:39.459Z,20.88
2024-05-09T13:08:06.165Z,20.91
2024-05-09T13:12:31.739Z,20.97
2024-05-09T13:17:00.445Z,20.92
2024-05-09T13:21:26.057Z,20.88
2024-05-09T13:25:52.218Z,20.86
2024-05-09T13:30:26.068Z,20.91
2024-05-09T13:35:02.211Z,20.92
2024-05-09T13:39:28.168Z,20.90
2024-05-09T13:43:54.478Z,20.89
2024-05-09T13:48:20.259Z,20.87
2024-05-09T13:52:48.961Z,20.89
2024-05-09T13:57:14.622Z,20.87
2024-05-09T14:01:40.660Z,20.90
2024-05-09T14:06:08.747Z,20.88
2024-05-09T14:10:44.722Z,20.80
2024-05-09T14:15:11.338Z,20.73
2024-05-09T14:19:37.240Z,20.70
2024-05-09T14:24:03.719Z,20.68
2024-05-09T14:28:32.382Z,20.64
2024-05-09T14:32:58.114Z,20.60
2024-05-09T14:37:24.231Z,20.61
2024-05-09T14:41:50.280Z,20.59
2024-05-09T14:46:19.520Z,20.50
2024-05-09T14:50:45.545Z,20.50
2024-05-09T14:55:12.420Z,20.51
2024-05-09T14:59:38.071Z,20.47
2024-05-09T15:04:06.955Z,20.37
2024-05-09T15:08:32.676Z,20.33
2024-05-09T15:12:58.761Z,20.28
2024-05-09T15:17:24.551Z,20.29
2024-05-09T15:21:53.282Z,20.27
2024-05-09T15:26:19.297Z,20.25
2024-05-09T15:30:46.657Z,20.23
2024-05-09T15:35:13.324Z,20.17
2024-05-09T15:39:42.828Z,20.12
2024-05-09T15:44:08.830Z,20.09
2024-05-09T15:48:35.356Z,20.06
2024-05-09T15:53:01.295Z,20.03
2024-05-09T15:57:29.827Z,19.95
2024-05-09T16:01:56.203Z,19.90
2024-05-09T16:06:22.268Z,19.86
2024-05-09T16:10:49.704Z,19.83
2024-05-09T16:15:18.444Z,19.80
2024-05-09T16:19:44.023Z,19.76
2024-05-09T16:24:10.324Z,19.68
2024-05-09T16:28:36.790Z,19.61
2024-05-09T16:33:05.923Z,19.55
2024-05-09T16:37:31.815Z,19.52
2024-05-09T16:41:57.836Z,19.48
2024-05-09T16:46:24.309Z,19.45
2024-05-09T16:50:52.952Z,19.43
2024-05-09T16:55:19.322Z,19.39
2024-05-09T16:59:45.673Z,19.36
2024-05-09T17:04:11.524Z,19.35
2024-05-09T17:08:41.623Z,19.28
2024-05-09T17:13:08.386Z,19.23
2024-05-09T17:17:34.896Z,19.22
2024-05-09T17:22:00.642Z,19.17
2024-05-09T17:26:29.391Z,19.14
2024-05-09T17:30:54.978Z,19.06
2024-05-09T17:35:20.916Z,18.98
2024-05-09T17:39:46.918Z,18.89
2024-05-09T17:44:15.727Z,18.82
2024-05-09T17:48:42.217Z,18.78
2024-05-09T17:53:08.776Z,18.70
2024-05-09T17:57:34.536Z,18.60
2024-05-09T18:02:03.356Z,18.50
2024-05-09T18:06:29.040Z,18.40
2024-05-09T18:10:55.734Z,18.26
2024-05-09T18:15:22.797Z,18.17
2024-05-09T18:19:51.472Z,18.13
2024-05-09T18:24:17.071Z,18.09
2024-05-09T18:28:43.205Z,17.97
2024-05-09T18:33:10.006Z,17.86
2024-05-09T18:37:39.158Z,17.76
2024-05-09T18:42:04.756Z,17.65
2024-05-09T18:46:30.937Z,17.53
2024-05-09T18:50:57.103Z,17.44
2024-05-09T18:55:25.636Z,17.33
2024-05-09T18:59:51.221Z,17.24
2024-05-09T19:04:19.093Z,17.21
2024-05-09T19:08:45.165Z,17.10
2024-05-09T19:13:14.624Z,16.97
2024-05-09T19:17:41.158Z,16.88
2024-05-09T19:22:10.303Z,16.83
2024-05-09T19:26:35.995Z,16.79
2024-05-09T19:31:05.017Z,16.78
2024-05-09T19:35:30.716Z,16.75
2024-05-09T19:39:56.655Z,16.70
2024-05-09T19:44:22.594Z,16.63
2024-05-09T19:48:51.456Z,16.57
2024-05-09T19:53:18.187Z,16.52
2024-05-09T19:57:44.922Z,16.47
2024-05-09T20:02:10.612Z,16.39
2024-05-09T20:06:40.788Z,16.28
2024-05-09T20:11:06.576Z,16.18
2024-05-09T20:15:32.615Z,16.11
2024-05-09T20:19:58.281Z,16.04
2024-05-09T20:24:26.845Z,15.97
2024-05-09T20:28:52.417Z,15.91
2024-05-09T20:33:18.479Z,15.86
2024-05-09T20:37:44.188Z,15.79
2024-05-09T20:42:12.778Z,15.75
2024-05-09T20:46:38.707Z,15.67
2024-05-09T20:51:04.621Z,15.59
2024-05-09T20:55:30.669Z,15.50
2024-05-09T20:59:59.337Z,15.39
2024-05-09T21:04:25.110Z,15.26
2024-05-09T21:08:51.137Z,15.13
2024-05-09T21:13:16.767Z,15.01
2024-05-09T21:17:45.503Z,14.88
2024-05-09T21:22:11.182Z,14.74
2024-05-09T21:26:37.943Z,14.65
2024-05-09T21:31:03.563Z,14.60
2024-05-09T21:35:32.224Z,14.54
2024-05-09T21:39:57.833Z,14.46
2024-05-09T21:44:23.849Z,14.39
2024-05-09T21:48:49.869Z,14.30
2024-05-09T21:53:18.465Z,14.27
2024-05-09T21:57:44.431Z,14.22
2024-05-09T22:02:10.568Z,14.15
2024-05-09T22:06:36.216Z,14.06
2024-05-09T22:11:04.956Z,13.96
2024-05-09T22:15:30.632Z,13.84
2024-05-09T22:19:57.007Z,13.78
2024-05-09T22:24:22.652Z,13.72
2024-05-09T22:28:51.362Z,13.68
2024-05-09T22:33:17.802Z,13.61
2024-05-09T22:37:43.986Z,13.53
2024-05-09T22:42:09.731Z,13.48
2024-05-09T22:46:38.423Z,13.41
2024-05-09T22:51:04.196Z,13.34
2024-05-09T22:55:30.610Z,13.31
2024-05-09T22:59:56.289Z,13.23
2024-05-09T23:04:25.047Z,13.17
2024-05-09T23:08:50.716Z,13.11
2024-05-09T23:13:16.820Z,13.06
2024-05-09T23:17:42.596Z,13.00
2024-05-09T23:22:11.432Z,13.00
2024-05-09T23:26:37.347Z,12.95
2024-05-09T23:31:03.396Z,12.94
2024-05-09T23:35:29.315Z,12.90
2024-05-09T23:39:57.937Z,12.87
2024-05-09T23:44:23.622Z,12.80
2024-05-09T23:48:49.598Z,12.77
2024-05-09T23:53:15.298Z,12.69
2024-05-09T23:57:44.736Z,12.64
